Time;durP1;ratioP1;P1;durP2;ratioP2;P2;SDS_P1;SDS_P2;PMS_P1;PMS_P2;Temp;Humidity;BMP_temperature;BMP_pressure;BME280_temperature;BME280_humidity;BME280_pressure;Samples;Min_cycle;Max_cycle;Signal;HPM_P1;HPM_P2
2021/09/02 00:00:10;;;;;;;14.88;9.25;;;19.90;99.90;;;;;;5015125;28;20022;-74
2021/09/02 00:02:38;;;;;;;12.90;9.40;;;19.90;99.90;;;;;;5016512;28;20394;-73
2021/09/02 00:05:06;;;;;;;15.70;10.02;;;20.00;99.90;;;;;;5016192;28;20514;-74
2021/09/02 00:07:33;;;;;;;11.05;9.65;;;20.20;99.90;;;;;;5014978;28;20401;-73
2021/09/02 00:10:01;;;;;;;15.52;9.77;;;20.30;99.90;;;;;;5015097;28;20393;-73
2021/09/02 00:12:28;;;;;;;10.48;8.95;;;20.30;99.90;;;;;;5014995;28;20030;-73
2021/09/02 00:14:55;;;;;;;15.55;9.07;;;20.30;99.90;;;;;;5014467;28;20072;-73
2021/09/02 00:17:23;;;;;;;13.68;9.23;;;20.30;99.90;;;;;;5016389;28;20084;-73
2021/09/02 00:19:50;;;;;;;13.55;9.25;;;20.50;99.90;;;;;;5015050;28;20140;-73
2021/09/02 00:22:18;;;;;;;17.42;8.00;;;20.50;99.90;;;;;;5014949;28;20037;-73
2021/09/02 00:24:45;;;;;;;13.32;8.98;;;20.70;99.90;;;;;;5015996;28;20493;-74
2021/09/02 00:27:13;;;;;;;14.18;9.00;;;20.70;99.90;;;;;;5014699;28;20022;-74
2021/09/02 00:29:40;;;;;;;13.73;9.32;;;20.80;99.90;;;;;;5015747;28;20014;-72
2021/09/02 00:32:08;;;;;;;13.32;9.18;;;20.60;99.90;;;;;;5014759;28;20482;-73
2021/09/02 00:34:35;;;;;;;10.10;8.55;;;20.50;99.90;;;;;;5015984;28;20063;-72
2021/09/02 00:37:03;;;;;;;13.73;8.48;;;20.60;99.90;;;;;;5015952;28;20029;-73
2021/09/02 00:39:30;;;;;;;11.35;8.82;;;20.50;99.90;;;;;;5015848;28;20026;-73
2021/09/02 00:41:57;;;;;;;15.63;8.60;;;20.60;99.90;;;;;;5015652;28;20026;-73
2021/09/02 00:44:39;;;;;;;11.63;7.82;;;20.70;99.90;;;;;;5015860;28;20062;-73
2021/09/02 00:47:12;;;;;;;12.90;7.65;;;21.00;99.90;;;;;;5015798;28;20050;-73
2021/09/02 00:49:43;;;;;;;14.30;8.68;;;21.00;99.90;;;;;;5015695;28;20022;-74
2021/09/02 00:52:16;;;;;;;13.27;8.02;;;21.00;99.90;;;;;;5014104;28;20022;-70
2021/09/02 00:54:48;;;;;;;10.52;7.80;;;21.00;99.90;;;;;;5015614;28;20026;-71
2021/09/02 00:57:20;;;;;;;15.93;8.63;;;21.20;99.90;;;;;;5014353;28;20030;-72
2021/09/02 00:59:52;;;;;;;14.38;8.30;;;21.30;99.90;;;;;;5015467;28;20105;-72
2021/09/02 01:02:30;;;;;;;10.93;8.05;;;21.40;99.90;;;;;;5015253;28;20076;-71
2021/09/02 01:05:00;;;;;;;8.85;7.40;;;21.30;99.90;;;;;;5013829;28;20049;-72
2021/09/02 01:07:30;;;;;;;13.43;8.05;;;21.10;99.90;;;;;;5015379;28;20021;-71
2021/09/02 01:09:59;;;;;;;14.30;8.00;;;21.30;99.90;;;;;;5015414;28;20018;-73
2021/09/02 01:12:42;;;;;;;10.27;7.78;;;21.20;99.90;;;;;;5014231;28;20037;-73
2021/09/02 01:15:19;;;;;;;8.82;7.80;;;21.00;99.90;;;;;;5014131;28;20076;-72
2021/09/02 01:17:49;;;;;;;14.07;8.75;;;21.10;99.90;;;;;;5014298;28;20038;-72
2021/09/02 01:20:19;;;;;;;13.40;8.52;;;21.10;99.90;;;;;;5014951;28;20462;-73
2021/09/02 01:22:49;;;;;;;14.90;8.82;;;21.30;99.90;;;;;;5013574;28;20030;-72
2021/09/02 01:25:22;;;;;;;10.63;8.00;;;21.40;99.90;;;;;;5013775;28;20505;-72
2021/09/02 01:27:54;;;;;;;14.02;9.00;;;21.50;99.90;;;;;;5012785;28;20022;-72
2021/09/02 01:30:22;;;;;;;18.48;8.80;;;21.60;99.90;;;;;;5014760;28;20014;-72
2021/09/02 01:32:51;;;;;;;10.80;7.95;;;21.50;99.90;;;;;;5014912;28;20500;-73
2021/09/02 01:35:20;;;;;;;12.45;8.10;;;21.40;99.90;;;;;;5014546;28;20025;-72
2021/09/02 01:37:57;;;;;;;14.00;7.60;;;21.30;99.90;;;;;;5014724;28;20045;-72
2021/09/02 01:40:28;;;;;;;12.30;8.10;;;21.50;99.90;;;;;;5014698;28;20026;-72
2021/09/02 01:42:56;;;;;;;9.93;8.13;;;21.60;99.90;;;;;;5013168;28;20025;-71
2021/09/02 01:45:23;;;;;;;13.60;7.45;;;21.50;99.90;;;;;;5013087;28;20029;-72
2021/09/02 01:47:51;;;;;;;14.98;7.95;;;21.30;99.90;;;;;;5014167;28;20485;-72
2021/09/02 01:50:22;;;;;;;13.23;8.55;;;21.40;99.90;;;;;;5014195;28;20030;-71
2021/09/02 01:52:52;;;;;;;9.07;7.95;;;21.30;99.90;;;;;;5012740;28;20479;-72
2021/09/02 01:55:21;;;;;;;11.88;8.27;;;21.60;99.90;;;;;;5013955;28;20121;-72
2021/09/02 01:57:50;;;;;;;9.57;7.60;;;21.50;99.90;;;;;;5014324;28;20374;-72
2021/09/02 02:00:18;;;;;;;14.23;8.57;;;21.40;99.90;;;;;;5012890;28;20552;-72
2021/09/02 02:02:46;;;;;;;11.40;8.38;;;21.30;99.90;;;;;;5012679;28;20506;-72
2021/09/02 02:05:14;;;;;;;13.88;8.73;;;21.40;99.90;;;;;;5012260;28;20483;-73
2021/09/02 02:07:42;;;;;;;11.93;7.75;;;21.70;99.90;;;;;;5014429;28;20080;-74
2021/09/02 02:10:13;;;;;;;12.93;8.60;;;21.60;99.90;;;;;;5014533;28;20049;-74
2021/09/02 02:12:41;;;;;;;14.20;8.43;;;21.90;99.90;;;;;;5012854;28;20022;-74
2021/09/02 02:15:10;;;;;;;12.93;8.15;;;21.90;99.90;;;;;;5014243;28;20378;-73
2021/09/02 02:17:39;;;;;;;10.52;7.75;;;22.00;99.90;;;;;;5012703;28;20030;-72
2021/09/02 02:20:08;;;;;;;12.60;7.07;;;22.10;99.90;;;;;;5012775;28;20088;-71
2021/09/02 02:22:35;;;;;;;11.68;7.35;;;22.00;99.90;;;;;;5012265;28;20031;-71
2021/09/02 02:25:04;;;;;;;10.93;6.97;;;21.90;99.90;;;;;;5013897;28;20026;-72
2021/09/02 02:27:32;;;;;;;9.90;6.95;;;21.60;99.90;;;;;;5012402;28;20026;-72
2021/09/02 02:29:59;;;;;;;9.75;6.50;;;21.70;99.90;;;;;;5013785;28;20041;-70
2021/09/02 02:32:26;;;;;;;10.18;7.10;;;21.70;99.90;;;;;;5013800;28;20030;-71
2021/09/02 02:34:53;;;;;;;10.45;7.00;;;21.70;99.90;;;;;;5012319;28;20176;-71
2021/09/02 02:37:21;;;;;;;13.73;7.57;;;21.70;99.90;;;;;;5015725;28;20105;-72
2021/09/02 02:39:48;;;;;;;9.20;6.20;;;21.80;99.90;;;;;;5014571;28;20026;-72
2021/09/02 02:42:17;;;;;;;13.85;7.68;;;21.90;99.90;;;;;;5014508;28;20029;-72
2021/09/02 02:44:45;;;;;;;9.40;6.90;;;21.90;99.90;;;;;;5014061;28;20481;-73
2021/09/02 02:47:13;;;;;;;11.25;7.03;;;22.10;99.90;;;;;;5013154;28;20145;-73
2021/09/02 02:49:41;;;;;;;10.45;6.78;;;22.00;99.90;;;;;;5014759;28;20053;-71
2021/09/02 02:52:09;;;;;;;13.57;6.80;;;22.00;99.90;;;;;;5016439;28;20463;-72
2021/09/02 02:54:37;;;;;;;11.65;6.90;;;22.10;99.90;;;;;;5016569;28;20022;-71
2021/09/02 02:57:05;;;;;;;45.83;18.67;;;22.00;99.90;;;;;;5014469;28;20029;-72
2021/09/02 02:59:33;;;;;;;9.82;6.60;;;21.90;99.90;;;;;;5013511;28;20033;-72
2021/09/02 03:02:00;;;;;;;11.48;6.80;;;22.10;99.90;;;;;;5012744;28;20022;-72
2021/09/02 03:04:27;;;;;;;12.10;6.88;;;22.30;99.90;;;;;;5012313;28;20042;-72
2021/09/02 03:06:55;;;;;;;8.10;6.20;;;22.20;99.90;;;;;;5013653;28;20022;-73
2021/09/02 03:09:23;;;;;;;11.90;6.60;;;22.00;99.90;;;;;;5012193;28;20030;-71
2021/09/02 03:11:50;;;;;;;10.93;6.78;;;21.70;99.90;;;;;;5013479;28;20022;-71
2021/09/02 03:14:17;;;;;;;9.98;6.50;;;21.80;99.90;;;;;;5012020;28;20443;-71
2021/09/02 03:16:45;;;;;;;8.98;7.22;;;21.70;99.90;;;;;;5012108;28;20057;-71
2021/09/02 03:19:12;;;;;;;9.57;6.65;;;21.70;99.90;;;;;;5013340;28;20360;-72
2021/09/02 03:21:39;;;;;;;13.43;7.10;;;21.90;99.90;;;;;;5013168;28;20030;-73
2021/09/02 03:24:07;;;;;;;11.50;6.93;;;22.30;99.90;;;;;;5013205;28;20030;-71
2021/09/02 03:26:34;;;;;;;12.95;7.13;;;22.60;99.90;;;;;;5013234;28;20026;-71
2021/09/02 03:29:01;;;;;;;9.52;6.93;;;22.30;99.90;;;;;;5011775;28;20450;-71
2021/09/02 03:31:29;;;;;;;8.20;6.97;;;21.90;99.90;;;;;;5011749;28;20030;-72
2021/09/02 03:33:56;;;;;;;13.65;7.45;;;21.90;99.90;;;;;;5011975;28;20045;-71
2021/09/02 03:36:23;;;;;;;12.77;6.97;;;21.60;99.90;;;;;;5013158;28;20026;-70
2021/09/02 03:38:52;;;;;;;11.07;7.07;;;21.40;99.90;;;;;;5013200;28;20037;-71
2021/09/02 03:41:19;;;;;;;12.65;6.82;;;21.40;99.90;;;;;;5016195;28;20022;-71
2021/09/02 03:43:47;;;;;;;14.60;7.60;;;21.60;99.90;;;;;;5014280;28;20041;-74
2021/09/02 03:46:14;;;;;;;9.82;6.38;;;21.70;99.90;;;;;;5013179;28;20423;-73
2021/09/02 03:48:42;;;;;;;13.45;7.22;;;21.80;99.90;;;;;;5011533;28;20026;-73
2021/09/02 03:51:10;;;;;;;13.25;6.40;;;21.70;99.90;;;;;;4996919;28;20394;-73
2021/09/02 03:53:37;;;;;;;9.30;6.95;;;21.80;99.90;;;;;;5014863;28;20057;-72
2021/09/02 03:56:04;;;;;;;13.52;7.03;;;21.90;99.90;;;;;;5014760;28;20030;-74
2021/09/02 03:58:32;;;;;;;10.73;6.90;;;21.80;99.90;;;;;;5015639;28;20022;-75
2021/09/02 04:00:59;;;;;;;12.07;6.63;;;21.80;99.90;;;;;;5016403;28;20064;-74
2021/09/02 04:03:26;;;;;;;11.40;6.50;;;21.60;99.90;;;;;;5018799;28;20172;-73
2021/09/02 04:05:54;;;;;;;13.80;6.90;;;21.70;99.90;;;;;;5017083;28;20053;-74
2021/09/02 04:08:22;;;;;;;12.85;7.38;;;21.50;99.90;;;;;;5016596;28;20113;-73
2021/09/02 04:10:50;;;;;;;15.65;7.85;;;21.30;99.90;;;;;;5016371;28;20025;-74
2021/09/02 04:13:17;;;;;;;11.77;7.93;;;21.40;99.90;;;;;;5016403;28;20088;-74
2021/09/02 04:15:44;;;;;;;11.02;7.32;;;21.70;99.90;;;;;;5016177;28;20033;-74
2021/09/02 04:18:12;;;;;;;12.32;7.35;;;21.70;99.90;;;;;;5016126;28;20108;-74
2021/09/02 04:20:39;;;;;;;12.00;7.22;;;21.50;99.90;;;;;;5014804;28;20597;-74
2021/09/02 04:23:06;;;;;;;10.20;6.40;;;21.40;99.90;;;;;;5014920;28;20061;-72
2021/09/02 04:25:34;;;;;;;8.68;7.00;;;21.50;99.90;;;;;;5014721;28;20093;-74
2021/09/02 04:28:02;;;;;;;12.32;7.20;;;21.60;99.90;;;;;;5016135;28;20021;-74
2021/09/02 04:30:30;;;;;;;15.23;7.57;;;21.70;99.90;;;;;;5015617;28;20025;-73
2021/09/02 04:32:57;;;;;;;15.70;8.23;;;21.70;99.90;;;;;;5013920;28;20048;-72
2021/09/02 04:35:24;;;;;;;15.00;7.38;;;21.50;99.90;;;;;;5015287;28;20029;-75
2021/09/02 04:37:52;;;;;;;10.57;7.00;;;21.50;99.90;;;;;;5014451;28;20048;-73
2021/09/02 04:40:19;;;;;;;10.60;6.20;;;21.60;99.90;;;;;;5014462;28;20080;-74
2021/09/02 04:42:47;;;;;;;11.80;6.30;;;21.60;99.90;;;;;;5014404;28;20034;-71
2021/09/02 04:45:15;;;;;;;11.50;6.45;;;21.50;99.90;;;;;;5013950;28;20386;-74
2021/09/02 04:47:42;;;;;;;13.25;7.10;;;21.30;99.90;;;;;;5015100;28;20022;-72
2021/09/02 04:50:12;;;;;;;10.55;6.88;;;21.40;99.90;;;;;;5013867;28;20479;-73
2021/09/02 04:52:40;;;;;;;12.45;7.22;;;21.30;99.90;;;;;;5014307;28;20026;-72
2021/09/02 04:55:08;;;;;;;13.65;6.88;;;21.30;99.90;;;;;;5015465;28;20050;-74
2021/09/02 04:57:35;;;;;;;12.30;6.68;;;21.20;99.90;;;;;;5015499;28;20102;-72
2021/09/02 05:00:04;;;;;;;10.55;6.40;;;21.10;99.90;;;;;;5014230;28;20478;-73
2021/09/02 05:02:32;;;;;;;11.60;6.85;;;21.10;99.90;;;;;;5012822;28;20394;-74
2021/09/02 05:04:59;;;;;;;12.88;6.75;;;21.20;99.90;;;;;;5014812;28;20046;-73
2021/09/02 05:07:27;;;;;;;9.98;6.28;;;21.10;99.90;;;;;;5015384;28;20026;-71
2021/09/02 05:09:54;;;;;;;13.07;6.57;;;21.20;99.90;;;;;;5015435;28;20060;-73
2021/09/02 05:12:21;;;;;;;9.13;6.95;;;21.10;99.90;;;;;;5015207;28;20022;-72
2021/09/02 05:14:49;;;;;;;9.88;6.55;;;21.10;99.90;;;;;;5014956;28;20029;-72
2021/09/02 05:17:16;;;;;;;12.77;6.68;;;21.00;99.90;;;;;;5013817;28;20383;-72
2021/09/02 05:19:43;;;;;;;10.82;6.68;;;20.90;99.90;;;;;;5014926;28;20049;-72
2021/09/02 05:22:11;;;;;;;15.55;7.38;;;20.80;99.90;;;;;;5015049;28;20489;-72
2021/09/02 05:24:38;;;;;;;12.77;7.57;;;20.70;99.90;;;;;;5015413;28;20026;-72
2021/09/02 05:27:06;;;;;;;10.98;6.45;;;20.80;99.90;;;;;;5014677;28;20101;-72
2021/09/02 05:29:37;;;;;;;15.40;7.32;;;20.80;99.90;;;;;;5013450;28;20098;-73
2021/09/02 05:32:06;;;;;;;13.82;7.30;;;20.60;99.90;;;;;;5014947;28;20433;-73
2021/09/02 05:34:33;;;;;;;15.63;7.97;;;20.40;99.90;;;;;;5015001;28;20101;-73
2021/09/02 05:37:01;;;;;;;8.85;6.22;;;20.30;99.90;;;;;;5015089;28;20029;-72
2021/09/02 05:39:29;;;;;;;13.52;7.30;;;20.10;99.90;;;;;;5013345;28;20370;-72
2021/09/02 05:41:56;;;;;;;10.68;7.25;;;20.00;99.90;;;;;;5014773;28;20029;-72
2021/09/02 05:44:24;;;;;;;16.38;7.60;;;20.00;99.90;;;;;;5013392;28;20116;-73
2021/09/02 05:46:51;;;;;;;12.73;7.47;;;20.00;99.90;;;;;;5014684;28;20093;-71
2021/09/02 05:49:19;;;;;;;11.70;7.20;;;20.00;99.90;;;;;;5013261;28;20084;-72
2021/09/02 05:51:46;;;;;;;12.95;7.90;;;19.90;99.90;;;;;;5013589;28;20026;-72
2021/09/02 05:54:13;;;;;;;12.27;7.80;;;19.90;99.90;;;;;;5015170;28;20500;-70
2021/09/02 05:56:41;;;;;;;13.40;8.10;;;20.00;99.90;;;;;;5012827;28;20053;-72
2021/09/02 05:59:08;;;;;;;11.82;7.45;;;20.00;99.90;;;;;;5013167;28;20032;-73
2021/09/02 06:01:35;;;;;;;12.43;7.60;;;19.90;99.90;;;;;;5012918;28;20457;-73
2021/09/02 06:04:03;;;;;;;8.48;7.60;;;20.00;99.90;;;;;;5013960;28;20057;-72
2021/09/02 06:06:30;;;;;;;13.88;8.45;;;19.80;99.90;;;;;;5014484;28;20087;-73
2021/09/02 06:08:57;;;;;;;13.15;7.63;;;19.70;99.90;;;;;;5014131;28;20121;-73
2021/09/02 06:11:25;;;;;;;11.30;7.60;;;19.80;99.90;;;;;;5014335;28;20101;-73
2021/09/02 06:13:52;;;;;;;17.30;8.45;;;19.80;99.90;;;;;;5012409;28;20052;-72
2021/09/02 06:16:19;;;;;;;14.20;7.22;;;19.60;99.90;;;;;;5014261;28;20033;-73
2021/09/02 06:18:48;;;;;;;13.65;7.70;;;19.60;99.90;;;;;;5012594;28;20486;-73
2021/09/02 06:21:15;;;;;;;12.60;6.88;;;19.60;99.90;;;;;;5013939;28;20378;-73
2021/09/02 06:23:43;;;;;;;12.07;7.40;;;19.50;99.90;;;;;;5013912;28;20057;-73
2021/09/02 06:26:10;;;;;;;10.70;7.35;;;19.40;99.90;;;;;;5013863;28;20053;-73
2021/09/02 06:28:38;;;;;;;11.13;8.13;;;19.40;99.90;;;;;;5012609;28;20029;-72
2021/09/02 06:31:05;;;;;;;13.57;7.78;;;19.30;99.90;;;;;;5014009;28;20461;-73
2021/09/02 06:33:34;;;;;;;15.00;8.25;;;19.30;99.90;;;;;;5012834;28;20145;-73
2021/09/02 06:36:03;;;;;;;12.38;7.50;;;19.20;99.90;;;;;;5013817;28;20026;-73
2021/09/02 06:38:30;;;;;;;16.40;7.78;;;19.10;99.90;;;;;;5013583;28;20091;-72
2021/09/02 06:40:58;;;;;;;9.65;7.43;;;19.10;99.90;;;;;;5012257;28;20029;-72
2021/09/02 06:43:25;;;;;;;16.77;8.20;;;19.00;99.90;;;;;;5011967;28;20092;-73
2021/09/02 06:45:52;;;;;;;11.50;8.00;;;18.90;99.90;;;;;;5013595;28;20032;-72
2021/09/02 06:48:20;;;;;;;12.77;8.15;;;18.80;99.90;;;;;;5012757;28;20026;-73
2021/09/02 06:50:47;;;;;;;11.65;8.30;;;18.80;99.90;;;;;;5011985;28;20022;-76
2021/09/02 06:53:14;;;;;;;15.20;7.80;;;18.80;99.90;;;;;;5013958;28;20387;-73
2021/09/02 06:55:42;;;;;;;9.90;7.60;;;18.70;99.90;;;;;;5013845;28;20041;-73
2021/09/02 06:58:09;;;;;;;16.42;7.93;;;18.70;99.90;;;;;;4996208;28;20037;-74
2021/09/02 07:00:38;;;;;;;11.18;7.43;;;18.60;99.90;;;;;;5013550;28;20443;-73
2021/09/02 07:03:05;;;;;;;11.95;7.95;;;18.50;99.90;;;;;;5012237;28;20042;-74
2021/09/02 07:05:34;;;;;;;15.95;8.18;;;18.40;99.90;;;;;;5013072;28;20042;-72
2021/09/02 07:08:03;;;;;;;15.55;7.93;;;18.40;99.90;;;;;;5012015;28;20040;-74
2021/09/02 07:10:30;;;;;;;15.90;8.55;;;18.30;99.90;;;;;;5013346;28;20053;-72
2021/09/02 07:12:58;;;;;;;14.25;7.80;;;18.30;99.90;;;;;;5013614;28;20022;-75
2021/09/02 07:15:25;;;;;;;11.75;7.32;;;18.30;99.90;;;;;;5014044;28;20466;-73
2021/09/02 07:17:53;;;;;;;15.35;8.85;;;18.30;99.90;;;;;;5011777;28;20030;-74
2021/09/02 07:20:20;;;;;;;14.77;7.85;;;18.20;99.90;;;;;;5012295;28;20409;-74
2021/09/02 07:22:47;;;;;;;15.23;8.20;;;18.10;99.90;;;;;;5013179;28;20018;-75
2021/09/02 07:25:16;;;;;;;14.80;8.10;;;18.10;99.90;;;;;;5012625;28;20022;-75
2021/09/02 07:27:43;;;;;;;14.48;7.55;;;18.00;99.90;;;;;;5017196;28;20017;-78
2021/09/02 07:30:11;;;;;;;12.73;7.57;;;18.00;99.90;;;;;;5018267;28;20030;-75
2021/09/02 07:32:39;;;;;;;11.60;8.18;;;17.90;99.90;;;;;;5016331;28;20025;-74
2021/09/02 07:35:08;;;;;;;14.40;8.30;;;17.90;99.90;;;;;;5017560;28;20358;-75
2021/09/02 07:37:36;;;;;;;18.30;7.93;;;17.90;99.90;;;;;;5017417;28;20022;-75
2021/09/02 07:40:04;;;;;;;10.35;7.35;;;17.80;99.90;;;;;;5015704;28;20034;-74
2021/09/02 07:42:31;;;;;;;17.67;8.73;;;17.80;99.90;;;;;;5016914;28;20022;-75
2021/09/02 07:45:00;;;;;;;14.00;7.97;;;17.80;99.90;;;;;;5016352;28;20129;-75
2021/09/02 07:47:33;;;;;;;12.70;8.02;;;17.70;99.90;;;;;;5017687;28;20026;-75
2021/09/02 07:50:05;;;;;;;13.82;7.60;;;17.70;99.90;;;;;;4999662;28;20030;-75
2021/09/02 07:52:34;;;;;;;15.60;7.40;;;17.60;99.90;;;;;;5017126;28;20448;-73
2021/09/02 07:55:02;;;;;;;13.20;7.30;;;17.50;99.90;;;;;;5016715;28;20030;-75
2021/09/02 07:57:29;;;;;;;12.45;7.30;;;17.50;99.90;;;;;;5015439;28;20076;-74
2021/09/02 07:59:56;;;;;;;15.07;7.28;;;17.50;99.90;;;;;;5015312;28;20022;-75
2021/09/02 08:02:24;;;;;;;13.43;7.93;;;17.40;99.90;;;;;;5015314;28;20433;-75
2021/09/02 08:04:51;;;;;;;14.05;7.57;;;17.40;99.90;;;;;;5016343;28;20042;-74
2021/09/02 08:07:20;;;;;;;14.15;7.57;;;17.40;99.90;;;;;;5015442;28;20025;-75
2021/09/02 08:09:47;;;;;;;14.85;7.75;;;17.40;99.90;;;;;;4998952;28;20026;-73
2021/09/02 08:12:15;;;;;;;14.93;7.30;;;17.40;99.90;;;;;;5016636;28;20049;-74
2021/09/02 08:14:42;;;;;;;11.27;7.07;;;17.40;99.90;;;;;;5015255;28;20061;-74
2021/09/02 08:17:11;;;;;;;12.13;7.20;;;17.40;99.90;;;;;;5016714;28;20025;-74
2021/09/02 08:19:38;;;;;;;12.32;7.60;;;17.30;99.90;;;;;;5016361;28;20085;-74
2021/09/02 08:22:05;;;;;;;12.95;7.18;;;17.30;99.90;;;;;;5015049;28;20029;-74
2021/09/02 08:24:33;;;;;;;16.23;8.60;;;17.20;99.90;;;;;;5015138;28;20064;-74
2021/09/02 08:27:00;;;;;;;15.55;8.52;;;17.30;99.90;;;;;;5015012;28;20102;-72
2021/09/02 08:29:27;;;;;;;13.48;7.45;;;17.20;99.90;;;;;;5016236;28;20482;-73
2021/09/02 08:31:55;;;;;;;15.88;8.93;;;17.30;99.90;;;;;;5014617;28;20018;-73
2021/09/02 08:34:22;;;;;;;19.75;9.55;;;17.30;99.90;;;;;;5016160;28;20022;-73
2021/09/02 08:36:50;;;;;;;17.58;8.90;;;17.30;99.90;;;;;;5016060;28;20022;-73
2021/09/02 08:39:17;;;;;;;15.93;8.80;;;17.20;99.90;;;;;;5014965;28;20026;-73
2021/09/02 08:41:45;;;;;;;14.63;8.98;;;17.20;99.90;;;;;;5015915;28;20102;-73
2021/09/02 08:44:14;;;;;;;14.32;8.52;;;17.20;99.90;;;;;;5016060;28;20036;-72
2021/09/02 08:46:43;;;;;;;16.75;8.52;;;17.20;99.90;;;;;;5014773;28;20545;-72
2021/09/02 08:49:12;;;;;;;12.80;8.57;;;17.20;99.90;;;;;;5014186;28;20433;-71
2021/09/02 08:51:40;;;;;;;17.77;8.65;;;17.10;99.90;;;;;;5014214;28;20022;-73
2021/09/02 08:54:07;;;;;;;16.63;8.65;;;17.20;99.90;;;;;;5014570;28;20088;-74
2021/09/02 08:56:35;;;;;;;15.65;8.32;;;17.20;99.90;;;;;;5014275;28;20462;-72
2021/09/02 08:59:02;;;;;;;18.40;8.43;;;17.20;99.90;;;;;;5014185;28;20030;-72
2021/09/02 09:01:30;;;;;;;17.92;8.02;;;17.20;99.90;;;;;;5015505;28;20022;-73
2021/09/02 09:03:58;;;;;;;17.17;8.52;;;17.30;99.90;;;;;;5014057;28;20033;-73
2021/09/02 09:06:28;;;;;;;16.80;8.23;;;17.20;99.90;;;;;;5014451;28;20506;-74
2021/09/02 09:08:56;;;;;;;10.27;8.90;;;17.30;99.90;;;;;;5014334;28;20029;-73
2021/09/02 09:11:30;;;;;;;19.58;9.75;;;17.10;99.90;;;;;;5015344;28;20018;-74
2021/09/02 09:14:15;;;;;;;16.67;9.15;;;17.10;99.90;;;;;;5015783;28;20029;-74
2021/09/02 09:16:52;;;;;;;17.23;8.90;;;17.20;99.90;;;;;;5015301;28;20034;-71
2021/09/02 09:19:57;;;;;;;17.20;9.13;;;17.20;99.90;;;;;;5013854;28;20120;-72
2021/09/02 09:22:29;;;;;;;15.88;8.13;;;17.10;99.90;;;;;;4993394;28;20531;-72
2021/09/02 09:25:03;;;;;;;14.60;7.22;;;17.10;99.90;;;;;;5011946;28;20096;-71
2021/09/02 09:27:47;;;;;;;16.08;8.90;;;17.10;99.90;;;;;;5014935;28;20014;-72
2021/09/02 09:30:26;;;;;;;15.35;9.77;;;17.10;99.90;;;;;;5013748;28;20497;-73
2021/09/02 09:33:01;;;;;;;18.52;7.70;;;17.10;99.90;;;;;;5013710;28;20120;-73
2021/09/02 09:35:42;;;;;;;19.48;7.53;;;17.10;99.90;;;;;;5013519;28;20033;-75
2021/09/02 09:38:22;;;;;;;13.43;6.63;;;17.00;99.90;;;;;;5013750;28;20033;-73
2021/09/02 09:40:53;;;;;;;18.73;7.27;;;17.00;99.90;;;;;;5014079;28;20022;-73
2021/09/02 09:43:25;;;;;;;17.85;8.10;;;17.00;99.90;;;;;;5014778;28;20026;-76
2021/09/02 09:45:53;;;;;;;16.27;7.90;;;17.00;99.90;;;;;;5014877;28;20014;-74
2021/09/02 09:48:23;;;;;;;14.45;7.68;;;17.00;99.90;;;;;;5012769;28;20038;-73
2021/09/02 09:51:08;;;;;;;16.27;8.15;;;16.90;99.90;;;;;;5014602;28;20089;-72
2021/09/02 09:53:37;;;;;;;18.77;7.90;;;16.90;99.90;;;;;;5014610;28;20032;-74
2021/09/02 09:56:06;;;;;;;15.88;7.80;;;16.90;99.90;;;;;;4997280;28;20040;-73
2021/09/02 09:58:35;;;;;;;13.07;7.80;;;16.90;99.90;;;;;;5013245;28;20065;-72
2021/09/02 10:01:04;;;;;;;16.57;7.20;;;16.90;99.90;;;;;;5014549;28;20058;-73
2021/09/02 10:03:33;;;;;;;19.02;7.63;;;16.90;99.90;;;;;;5014214;28;20279;-74
2021/09/02 10:06:10;;;;;;;16.35;7.18;;;16.90;99.90;;;;;;4996588;28;20154;-73
2021/09/02 10:08:43;;;;;;;12.30;7.35;;;16.90;99.90;;;;;;5013336;28;20026;-73
2021/09/02 10:11:13;;;;;;;13.35;8.07;;;16.90;99.90;;;;;;5013645;28;20383;-71
2021/09/02 10:13:44;;;;;;;14.23;7.72;;;16.90;99.90;;;;;;5013267;28;20030;-71
2021/09/02 10:16:12;;;;;;;18.40;8.18;;;16.90;99.90;;;;;;4997464;28;20494;-75
2021/09/02 10:18:48;;;;;;;16.48;7.97;;;16.90;99.90;;;;;;5013311;28;20549;-72
2021/09/02 10:21:16;;;;;;;12.98;7.13;;;16.90;99.90;;;;;;5014190;28;20041;-74
2021/09/02 10:23:44;;;;;;;13.50;7.35;;;16.90;99.90;;;;;;5013037;28;20030;-72
2021/09/02 10:26:34;;;;;;;12.95;7.60;;;16.90;99.90;;;;;;5012643;28;20367;-73
2021/09/02 10:29:35;;;;;;;9.32;7.07;;;16.80;99.90;;;;;;5014068;28;20045;-73
2021/09/02 10:32:24;;;;;;;11.40;7.03;;;16.80;99.90;;;;;;5014007;28;20022;-71
2021/09/02 10:35:12;;;;;;;16.05;7.80;;;16.80;99.90;;;;;;5013617;28;20072;-72
2021/09/02 10:37:43;;;;;;;15.00;7.95;;;16.80;99.90;;;;;;5016224;28;20033;-73
2021/09/02 10:40:36;;;;;;;11.25;7.40;;;16.80;99.90;;;;;;5014106;28;20025;-74
2021/09/02 10:43:04;;;;;;;17.83;7.88;;;16.80;99.90;;;;;;5011122;28;20386;-73
2021/09/02 10:45:36;;;;;;;14.98;7.65;;;16.80;99.90;;;;;;5015694;28;20022;-74
2021/09/02 10:48:07;;;;;;;10.57;7.53;;;16.80;99.90;;;;;;5013731;28;20026;-73
2021/09/02 10:50:42;;;;;;;14.15;7.68;;;16.80;99.90;;;;;;5014383;28;20056;-74
2021/09/02 10:53:14;;;;;;;10.30;7.63;;;16.80;99.90;;;;;;5013636;28;20036;-76
2021/09/02 10:55:41;;;;;;;14.13;7.03;;;16.80;99.90;;;;;;5012297;28;20029;-74
2021/09/02 10:58:30;;;;;;;11.35;6.60;;;16.80;99.90;;;;;;5013533;28;20101;-73
2021/09/02 11:00:57;;;;;;;12.75;6.97;;;16.80;99.90;;;;;;4997733;28;20030;-73
2021/09/02 11:03:25;;;;;;;17.58;7.72;;;16.80;99.90;;;;;;5013933;28;20061;-73
2021/09/02 11:05:58;;;;;;;11.23;7.13;;;16.70;99.90;;;;;;5013378;28;20045;-74
2021/09/02 11:08:40;;;;;;;14.68;7.30;;;16.70;99.90;;;;;;5011744;28;20109;-73
2021/09/02 11:11:21;;;;;;;15.10;7.85;;;16.70;99.90;;;;;;5012685;28;20566;-75
2021/09/02 11:13:49;;;;;;;;;;;16.60;99.90;;;;;;5014185;28;20167;-73
2021/09/02 11:16:22;;;;;;;10.00;6.97;;;16.70;99.90;;;;;;5012105;28;19906;-74
2021/09/02 11:18:52;;;;;;;11.73;7.70;;;16.60;99.90;;;;;;5013416;28;20025;-75
2021/09/02 11:21:25;;;;;;;13.35;7.60;;;16.60;99.90;;;;;;5013660;28;20120;-75
2021/09/02 11:24:09;;;;;;;11.27;7.40;;;16.70;99.90;;;;;;5013471;28;20034;-72
2021/09/02 11:26:45;;;;;;;15.02;7.65;;;16.70;99.90;;;;;;5012531;28;20022;-73
2021/09/02 11:29:25;;;;;;;10.75;6.90;;;16.70;99.90;;;;;;5013597;28;20382;-74
2021/09/02 11:32:13;;;;;;;12.93;7.57;;;16.60;99.90;;;;;;5012274;28;20032;-73
2021/09/02 11:34:41;;;;;;;10.38;6.95;;;16.60;99.90;;;;;;5013249;28;20355;-71
2021/09/02 11:37:09;;;;;;;8.50;7.35;;;16.60;99.90;;;;;;5013048;28;20026;-73
2021/09/02 11:39:39;;;;;;;10.13;7.90;;;16.60;99.90;;;;;;5011970;28;20048;-75
2021/09/02 11:42:11;;;;;;;13.68;7.75;;;16.50;99.90;;;;;;5013163;28;20018;-74
2021/09/02 11:44:40;;;;;;;9.10;7.55;;;16.50;99.90;;;;;;5011624;28;20491;-73
2021/09/02 11:47:13;;;;;;;13.90;7.15;;;16.60;99.90;;;;;;5011497;28;20404;-72
2021/09/02 11:49:41;;;;;;;8.85;7.40;;;16.60;99.90;;;;;;5013465;28;20032;-73
2021/09/02 11:52:10;;;;;;;10.50;7.10;;;16.60;99.90;;;;;;5011571;28;20026;-73
2021/09/02 11:54:37;;;;;;;9.73;6.95;;;16.60;99.90;;;;;;5013380;28;20029;-74
2021/09/02 11:57:05;;;;;;;11.32;6.88;;;16.60;99.90;;;;;;5012055;28;20092;-74
2021/09/02 11:59:33;;;;;;;9.98;7.85;;;16.50;99.90;;;;;;5010610;28;20117;-74
2021/09/02 12:02:02;;;;;;;11.50;8.07;;;16.50;99.90;;;;;;5011636;28;20030;-74
2021/09/02 12:04:31;;;;;;;10.05;7.78;;;16.40;99.90;;;;;;5011063;28;20030;-73
2021/09/02 12:07:01;;;;;;;11.95;7.88;;;16.40;99.90;;;;;;5012672;28;20026;-73
2021/09/02 12:09:34;;;;;;;9.70;8.30;;;16.40;99.90;;;;;;5011720;28;20026;-72
2021/09/02 12:12:03;;;;;;;8.18;7.05;;;16.40;99.90;;;;;;5014721;28;20026;-73
2021/09/02 12:14:32;;;;;;;8.05;7.32;;;16.40;99.90;;;;;;5016316;28;20521;-74
2021/09/02 12:17:09;;;;;;;12.32;8.02;;;16.40;99.90;;;;;;5016312;28;20026;-71
2021/09/02 12:19:57;;;;;;;14.95;8.40;;;16.40;99.90;;;;;;5016214;28;20091;-73
2021/09/02 12:22:44;;;;;;;13.48;7.40;;;16.40;99.90;;;;;;5016255;28;20491;-73
2021/09/02 12:25:17;;;;;;;12.35;8.15;;;16.30;99.90;;;;;;5016095;28;20030;-74
2021/09/02 12:27:51;;;;;;;12.30;7.95;;;16.30;99.90;;;;;;5016248;28;20437;-75
2021/09/02 12:30:40;;;;;;;9.05;8.18;;;16.30;99.90;;;;;;5016437;28;20037;-74
2021/09/02 12:33:19;;;;;;;11.77;7.95;;;16.20;99.90;;;;;;5014772;28;20070;-72
2021/09/02 12:35:47;;;;;;;12.63;8.32;;;16.20;99.90;;;;;;5014655;28;20113;-73
2021/09/02 12:38:36;;;;;;;12.88;7.47;;;16.20;99.90;;;;;;5015875;28;20383;-72
2021/09/02 12:41:21;;;;;;;11.00;7.63;;;16.10;99.90;;;;;;5015618;28;20022;-73
2021/09/02 12:44:11;;;;;;;13.57;7.72;;;16.10;99.90;;;;;;5015756;28;20471;-73
2021/09/02 12:46:49;;;;;;;8.15;7.40;;;16.10;99.90;;;;;;5015786;28;20026;-72
2021/09/02 12:49:17;;;;;;;13.23;6.95;;;16.10;99.90;;;;;;5014528;28;20029;-73
2021/09/02 12:52:18;;;;;;;9.85;7.28;;;16.10;99.90;;;;;;5015548;28;20121;-73